Time;durP1;ratioP1;P1;durP2;ratioP2;P2;SDS_P1;SDS_P2;PMS_P1;PMS_P2;Temp;Humidity;BMP_temperature;BMP_pressure;BME280_temperature;BME280_humidity;BME280_pressure;Samples;Min_cycle;Max_cycle;Signal;HPM_P1;HPM_P2
2022/01/15 00:01:32;;;;;;;25.30;5.43;;;;;;;;;;4987509;28;20062;-85
2022/01/15 00:03:58;;;;;;;16.67;4.97;;;;;;;;;;4984327;28;20050;-85
2022/01/15 00:06:24;;;;;;;7.03;4.40;;;;;;;;;;4986120;28;20345;-84
2022/01/15 00:08:51;;;;;;;11.40;5.25;;;;;;;;;;4997955;28;20492;-84
2022/01/15 00:11:17;;;;;;;8.50;4.68;;;;;;;;;;4986245;28;20034;-84
2022/01/15 00:13:45;;;;;;;14.95;5.43;;;;;;;;;;4980485;28;20054;-83
2022/01/15 00:16:24;;;;;;;17.65;5.57;;;;;;;;;;5008707;28;20081;-84
2022/01/15 00:19:08;;;;;;;19.63;5.50;;;;;;;;;;4993554;28;20121;-84
2022/01/15 00:21:35;;;;;;;13.40;5.30;;;;;;;;;;4991955;28;20121;-84
2022/01/15 00:24:04;;;;;;;7.65;4.47;;;;;;;;;;4991096;28;20061;-84
2022/01/15 00:26:30;;;;;;;16.35;5.72;;;;;;;;;;4988255;28;20520;-83
2022/01/15 00:28:56;;;;;;;14.85;5.82;;;;;;;;;;4990089;28;20139;-83
2022/01/15 00:31:22;;;;;;;6.40;4.32;;;;;;;;;;4991892;28;20184;-85
2022/01/15 00:33:48;;;;;;;9.80;5.00;;;;;;;;;;4990497;28;20057;-85
2022/01/15 00:36:15;;;;;;;11.23;5.43;;;;;;;;;;4984979;28;20038;-85
2022/01/15 00:38:42;;;;;;;13.80;5.32;;;;;;;;;;4988130;28;20121;-85
2022/01/15 00:41:08;;;;;;;18.63;5.25;;;;;;;;;;4983689;28;20043;-86
2022/01/15 00:43:34;;;;;;;8.98;4.68;;;;;;;;;;4990527;28;20049;-85
2022/01/15 00:46:00;;;;;;;7.22;3.80;;;;;;;;;;4968258;28;20174;-85
2022/01/15 00:48:26;;;;;;;12.60;4.57;;;;;;;;;;4988313;28;20051;-84
2022/01/15 00:50:53;;;;;;;9.32;4.20;;;;;;;;;;5005561;28;20054;-85
2022/01/15 00:53:19;;;;;;;5.47;4.00;;;;;;;;;;5006566;28;20037;-84
2022/01/15 00:55:45;;;;;;;4.63;3.45;;;;;;;;;;4988238;28;20186;-84
2022/01/15 00:58:12;;;;;;;3.72;3.40;;;;;;;;;;5006059;28;20069;-83
2022/01/15 01:00:38;;;;;;;4.22;3.20;;;;;;;;;;4994995;28;20112;-84
2022/01/15 01:03:04;;;;;;;4.35;3.63;;;;;;;;;;4991592;28;20125;-84
2022/01/15 01:05:30;;;;;;;4.35;3.50;;;;;;;;;;4991200;28;20584;-84
2022/01/15 01:07:57;;;;;;;4.07;3.20;;;;;;;;;;4989806;28;20125;-84
2022/01/15 01:23:21;;;;;;;4.35;2.85;;;;;;;;;;4992682;28;20465;-83
2022/01/15 01:25:51;;;;;;;3.60;2.65;;;;;;;;;;4989120;28;20256;-83
2022/01/15 01:28:26;;;;;;;4.75;3.20;;;;;;;;;;4989465;28;20038;-83
2022/01/15 01:30:59;;;;;;;4.43;3.22;;;;;;;;;;4992874;28;20117;-84
2022/01/15 01:33:33;;;;;;;3.63;3.08;;;;;;;;;;4986064;28;20054;-84
2022/01/15 01:36:25;;;;;;;5.10;3.17;;;;;;;;;;4995488;28;20077;-84
2022/01/15 01:38:55;;;;;;;3.85;3.00;;;;;;;;;;4991336;28;20057;-84
2022/01/15 01:41:22;;;;;;;4.30;2.95;;;;;;;;;;4992603;28;20042;-83
2022/01/15 01:43:58;;;;;;;5.40;3.47;;;;;;;;;;4984356;28;20058;-84
2022/01/15 01:48:54;;;;;;;5.05;3.80;;;;;;;;;;4987969;28;20050;-83
2022/01/15 01:51:39;;;;;;;5.20;3.42;;;;;;;;;;4986645;28;20407;-84
2022/01/15 01:54:06;;;;;;;5.35;3.75;;;;;;;;;;5005690;28;20068;-84
2022/01/15 01:56:33;;;;;;;4.10;3.20;;;;;;;;;;4986650;28;20054;-84
2022/01/15 01:58:59;;;;;;;3.85;3.13;;;;;;;;;;4994984;28;20411;-83
2022/01/15 02:01:25;;;;;;;4.70;3.38;;;;;;;;;;4993825;28;20042;-84
2022/01/15 02:03:52;;;;;;;4.53;3.22;;;;;;;;;;5008401;28;20504;-83
2022/01/15 02:06:19;;;;;;;4.95;3.40;;;;;;;;;;4990549;28;20412;-84
2022/01/15 02:08:56;;;;;;;4.45;3.10;;;;;;;;;;4985802;28;20060;-84
2022/01/15 02:11:26;;;;;;;4.88;3.03;;;;;;;;;;4990091;28;20064;-84
2022/01/15 02:13:52;;;;;;;4.43;2.85;;;;;;;;;;5006103;28;20046;-84
2022/01/15 02:16:18;;;;;;;3.70;2.70;;;;;;;;;;4990342;28;20038;-84
2022/01/15 02:18:44;;;;;;;3.72;3.03;;;;;;;;;;4986391;28;20064;-84
2022/01/15 02:23:44;;;;;;;3.63;2.63;;;;;;;;;;4992120;28;20054;-84
2022/01/15 02:26:30;;;;;;;4.28;2.78;;;;;;;;;;4991499;28;20058;-84
2022/01/15 02:28:58;;;;;;;3.83;2.88;;;;;;;;;;4991954;28;20049;-84
2022/01/15 02:31:25;;;;;;;4.00;3.05;;;;;;;;;;4989930;28;20050;-84
2022/01/15 02:33:53;;;;;;;6.32;3.00;;;;;;;;;;4989793;28;20128;-83
2022/01/15 02:36:23;;;;;;;5.05;2.75;;;;;;;;;;4986434;28;20049;-83
2022/01/15 02:38:49;;;;;;;8.18;2.70;;;;;;;;;;4983396;28;20077;-83
2022/01/15 02:41:15;;;;;;;7.22;2.60;;;;;;;;;;4990709;28;20081;-83
2022/01/15 02:43:41;;;;;;;12.65;2.30;;;;;;;;;;4985275;28;20046;-83
2022/01/15 02:46:20;;;;;;;16.63;2.65;;;;;;;;;;5008164;28;20040;-83
2022/01/15 02:48:51;;;;;;;17.35;2.65;;;;;;;;;;4990449;28;20054;-83
2022/01/15 02:51:17;;;;;;;19.00;2.75;;;;;;;;;;4991222;28;20054;-83
2022/01/15 02:53:44;;;;;;;12.25;2.40;;;;;;;;;;4985983;28;20048;-84
2022/01/15 02:56:10;;;;;;;10.55;2.60;;;;;;;;;;4989117;28;20058;-84
2022/01/15 02:58:36;;;;;;;17.08;2.85;;;;;;;;;;4985119;28;20038;-84
2022/01/15 03:01:02;;;;;;;14.77;2.65;;;;;;;;;;4991799;28;20086;-84
2022/01/15 03:03:28;;;;;;;27.30;2.95;;;;;;;;;;4989406;28;20048;-84
2022/01/15 03:05:54;;;;;;;20.27;2.67;;;;;;;;;;4990101;28;20120;-83
2022/01/15 03:08:20;;;;;;;11.10;2.38;;;;;;;;;;4989338;28;20096;-84
2022/01/15 03:10:46;;;;;;;22.27;3.13;;;;;;;;;;4983596;28;20045;-84
2022/01/15 03:13:14;;;;;;;7.43;2.35;;;;;;;;;;4987911;28;20057;-84
2022/01/15 03:15:40;;;;;;;7.45;2.30;;;;;;;;;;4985579;28;20042;-84
2022/01/15 03:18:07;;;;;;;6.95;2.05;;;;;;;;;;4979385;28;20525;-83
2022/01/15 03:20:36;;;;;;;3.13;1.90;;;;;;;;;;4986764;28;20061;-84
2022/01/15 03:23:02;;;;;;;2.78;1.63;;;;;;;;;;4984913;28;20054;-84
2022/01/15 03:25:28;;;;;;;1.85;1.75;;;;;;;;;;4989138;28;20045;-84
2022/01/15 03:27:54;;;;;;;2.67;1.75;;;;;;;;;;4984993;28;20054;-84
2022/01/15 03:30:20;;;;;;;2.10;1.60;;;;;;;;;;4988655;28;20474;-83
2022/01/15 03:32:46;;;;;;;1.83;1.70;;;;;;;;;;4984161;28;20212;-83
2022/01/15 03:35:16;;;;;;;3.83;1.95;;;;;;;;;;4990717;28;20125;-84
2022/01/15 03:37:46;;;;;;;2.40;2.08;;;;;;;;;;5005645;28;20056;-83
2022/01/15 03:40:13;;;;;;;9.43;2.47;;;;;;;;;;4985601;28;20110;-84
2022/01/15 03:42:39;;;;;;;7.38;2.35;;;;;;;;;;5006358;28;20076;-83
2022/01/15 03:45:06;;;;;;;8.30;2.50;;;;;;;;;;4991924;28;20393;-83
2022/01/15 03:47:32;;;;;;;7.97;2.50;;;;;;;;;;4981755;28;20064;-83
2022/01/15 03:49:58;;;;;;;9.60;2.40;;;;;;;;;;4986320;28;20125;-84
2022/01/15 03:52:24;;;;;;;5.60;2.63;;;;;;;;;;4997438;28;20115;-83
2022/01/15 03:54:50;;;;;;;6.68;2.40;;;;;;;;;;5006821;28;20695;-83
2022/01/15 03:57:19;;;;;;;5.82;2.40;;;;;;;;;;4987715;28;20119;-83
2022/01/15 03:59:48;;;;;;;9.07;2.53;;;;;;;;;;4985854;28;20053;-83
2022/01/15 04:02:14;;;;;;;6.65;2.47;;;;;;;;;;4987668;28;20042;-82
2022/01/15 04:04:40;;;;;;;9.13;2.10;;;;;;;;;;4990580;28;20057;-84
2022/01/15 04:07:06;;;;;;;4.38;2.30;;;;;;;;;;4976012;28;20422;-83
2022/01/15 04:09:32;;;;;;;5.93;2.50;;;;;;;;;;4984438;28;20066;-83
2022/01/15 04:11:58;;;;;;;6.10;2.40;;;;;;;;;;4982190;28;20088;-83
2022/01/15 04:14:24;;;;;;;7.10;2.40;;;;;;;;;;4999932;28;20394;-83
2022/01/15 04:16:50;;;;;;;5.47;2.33;;;;;;;;;;4984712;28;20077;-83
2022/01/15 04:19:16;;;;;;;6.88;2.40;;;;;;;;;;5004836;28;20478;-84
2022/01/15 04:21:42;;;;;;;6.55;1.98;;;;;;;;;;4979153;28;20057;-83
2022/01/15 04:24:08;;;;;;;2.30;1.90;;;;;;;;;;4983808;28;20082;-83
2022/01/15 04:26:34;;;;;;;3.60;1.98;;;;;;;;;;4986925;28;20449;-83
2022/01/15 04:29:05;;;;;;;5.15;1.88;;;;;;;;;;4989458;28;20069;-84
2022/01/15 04:31:46;;;;;;;3.33;2.13;;;;;;;;;;4984043;28;20058;-83
2022/01/15 04:34:12;;;;;;;3.17;1.83;;;;;;;;;;4987892;28;20053;-83
2022/01/15 04:36:38;;;;;;;2.58;1.65;;;;;;;;;;4987408;28;20470;-83
2022/01/15 04:39:04;;;;;;;8.85;1.90;;;;;;;;;;4984612;28;20066;-84
2022/01/15 04:41:30;;;;;;;3.28;1.65;;;;;;;;;;5001621;28;20046;-83
2022/01/15 04:43:56;;;;;;;3.13;1.90;;;;;;;;;;4983609;28;20061;-83
2022/01/15 04:46:22;;;;;;;5.78;2.08;;;;;;;;;;4987034;28;20485;-83
2022/01/15 04:48:48;;;;;;;3.45;2.08;;;;;;;;;;4985528;28;20409;-82
2022/01/15 04:51:14;;;;;;;4.50;2.13;;;;;;;;;;4989660;28;20034;-82
2022/01/15 04:53:40;;;;;;;3.42;2.00;;;;;;;;;;5002922;28;20077;-83
2022/01/15 04:56:06;;;;;;;3.30;2.13;;;;;;;;;;4980467;28;20057;-83
2022/01/15 04:58:32;;;;;;;6.60;2.00;;;;;;;;;;4986153;28;20049;-83
2022/01/15 05:00:58;;;;;;;2.58;2.10;;;;;;;;;;5012046;28;20052;-84
2022/01/15 05:03:24;;;;;;;11.35;2.40;;;;;;;;;;4980011;28;20106;-84
2022/01/15 05:05:50;;;;;;;6.07;2.40;;;;;;;;;;4985623;28;20061;-83
2022/01/15 05:08:16;;;;;;;7.10;3.92;;;;;;;;;;4991987;28;20060;-83
2022/01/15 05:10:46;;;;;;;39.17;3.72;;;;;;;;;;4985943;28;20047;-83
2022/01/15 05:13:14;;;;;;;28.58;3.50;;;;;;;;;;4992387;28;20071;-84
2022/01/15 05:15:42;;;;;;;30.45;3.72;;;;;;;;;;4984935;28;20054;-84
2022/01/15 05:18:08;;;;;;;55.28;4.15;;;;;;;;;;4983451;28;20104;-84
2022/01/15 05:20:36;;;;;;;51.55;4.18;;;;;;;;;;5009744;28;20050;-83
2022/01/15 05:23:02;;;;;;;42.20;3.65;;;;;;;;;;4983178;28;20054;-83
2022/01/15 05:25:28;;;;;;;17.05;3.10;;;;;;;;;;5008271;28;20479;-84
2022/01/15 05:27:57;;;;;;;60.03;4.38;;;;;;;;;;4987798;28;20042;-84
2022/01/15 05:30:23;;;;;;;57.83;4.22;;;;;;;;;;4984542;28;20521;-84
2022/01/15 05:32:49;;;;;;;52.83;3.92;;;;;;;;;;5007832;28;20054;-83
2022/01/15 05:35:15;;;;;;;34.83;3.80;;;;;;;;;;4982098;28;20038;-83
2022/01/15 05:37:41;;;;;;;24.52;3.50;;;;;;;;;;4988185;28;20552;-83
2022/01/15 05:40:08;;;;;;;18.77;2.75;;;;;;;;;;4993499;28;20085;-83
2022/01/15 05:42:37;;;;;;;42.05;3.53;;;;;;;;;;4987311;28;20042;-84
2022/01/15 05:45:03;;;;;;;28.35;3.20;;;;;;;;;;4986818;28;20054;-83
2022/01/15 05:47:29;;;;;;;10.07;2.60;;;;;;;;;;4985125;28;20224;-83
2022/01/15 05:49:55;;;;;;;17.30;2.80;;;;;;;;;;4984546;28;20034;-84
2022/01/15 05:52:21;;;;;;;6.70;2.35;;;;;;;;;;4991175;28;20551;-84
2022/01/15 05:54:47;;;;;;;7.78;2.20;;;;;;;;;;4986880;28;20046;-83
2022/01/15 05:57:13;;;;;;;11.05;2.55;;;;;;;;;;5005240;28;20077;-83
2022/01/15 05:59:39;;;;;;;2.25;2.03;;;;;;;;;;4983374;28;20053;-83
2022/01/15 06:02:05;;;;;;;2.35;2.00;;;;;;;;;;4990532;28;20547;-83
2022/01/15 06:04:31;;;;;;;2.20;2.00;;;;;;;;;;4990987;28;20058;-83
2022/01/15 06:06:57;;;;;;;1.60;1.50;;;;;;;;;;5008595;28;20394;-83
2022/01/15 06:09:23;;;;;;;1.50;1.40;;;;;;;;;;5006205;28;20046;-83
2022/01/15 06:11:50;;;;;;;1.75;1.65;;;;;;;;;;4985961;28;20271;-83
2022/01/15 06:14:16;;;;;;;2.70;1.80;;;;;;;;;;4985772;28;20057;-83
2022/01/15 06:16:42;;;;;;;4.95;2.33;;;;;;;;;;4987721;28;20132;-83
2022/01/15 06:19:08;;;;;;;6.18;3.35;;;;;;;;;;4984880;28;20073;-83
2022/01/15 06:21:34;;;;;;;2.50;2.30;;;;;;;;;;4986839;28;20133;-83
2022/01/15 06:24:00;;;;;;;3.13;2.10;;;;;;;;;;5008445;28;20057;-83
2022/01/15 06:26:26;;;;;;;2.15;1.95;;;;;;;;;;4988385;28;20042;-83
2022/01/15 06:28:52;;;;;;;2.67;2.30;;;;;;;;;;4984655;28;20065;-84
2022/01/15 06:31:18;;;;;;;2.38;2.17;;;;;;;;;;4982995;28;20046;-83
2022/01/15 06:33:44;;;;;;;1.95;1.73;;;;;;;;;;5006291;28;20058;-83
2022/01/15 06:36:10;;;;;;;2.13;1.77;;;;;;;;;;4988417;28;20057;-83
2022/01/15 06:38:36;;;;;;;2.00;1.80;;;;;;;;;;4986149;28;20390;-83
2022/01/15 06:41:03;;;;;;;1.75;1.65;;;;;;;;;;4988842;28;20136;-83
2022/01/15 06:43:29;;;;;;;1.80;1.70;;;;;;;;;;4985152;28;20081;-83
2022/01/15 06:45:54;;;;;;;1.88;1.77;;;;;;;;;;5006023;28;20069;-83
2022/01/15 06:48:21;;;;;;;1.80;1.70;;;;;;;;;;4989044;28;20415;-83
2022/01/15 06:50:47;;;;;;;2.30;2.10;;;;;;;;;;4989320;28;20046;-83
2022/01/15 06:53:13;;;;;;;1.90;1.80;;;;;;;;;;4985145;28;20065;-83
2022/01/15 06:55:40;;;;;;;3.70;2.20;;;;;;;;;;4984316;28;20053;-83
2022/01/15 06:58:06;;;;;;;2.00;1.80;;;;;;;;;;4988733;28;20574;-83
2022/01/15 07:00:32;;;;;;;2.22;1.95;;;;;;;;;;4988322;28;20100;-83
2022/01/15 07:03:01;;;;;;;2.20;2.00;;;;;;;;;;5003966;28;20485;-83
2022/01/15 07:05:27;;;;;;;2.22;1.92;;;;;;;;;;4984635;28;20042;-83
2022/01/15 07:07:53;;;;;;;2.25;2.05;;;;;;;;;;4982320;28;20046;-83
2022/01/15 07:10:19;;;;;;;2.22;2.00;;;;;;;;;;4986330;28;20049;-82
2022/01/15 07:12:45;;;;;;;1.92;1.83;;;;;;;;;;4987391;28;20065;-83
2022/01/15 07:15:14;;;;;;;1.80;1.70;;;;;;;;;;4988416;28;20045;-83
2022/01/15 07:17:44;;;;;;;2.45;1.85;;;;;;;;;;5008028;28;20485;-83
2022/01/15 07:20:10;;;;;;;2.65;2.25;;;;;;;;;;4989688;28;20046;-84
2022/01/15 07:22:36;;;;;;;3.33;2.20;;;;;;;;;;4987907;28;20053;-83
2022/01/15 07:25:03;;;;;;;2.65;2.13;;;;;;;;;;5001981;28;20046;-83
2022/01/15 07:27:29;;;;;;;3.65;2.40;;;;;;;;;;4986817;28;20053;-84
2022/01/15 07:29:55;;;;;;;2.53;2.10;;;;;;;;;;4984041;28;20038;-83
2022/01/15 07:32:21;;;;;;;2.85;2.30;;;;;;;;;;4990061;28;20057;-83
2022/01/15 07:34:47;;;;;;;3.97;2.65;;;;;;;;;;4985764;28;20038;-83
2022/01/15 07:37:12;;;;;;;3.35;2.42;;;;;;;;;;4983722;28;20397;-84
2022/01/15 07:39:41;;;;;;;4.72;2.63;;;;;;;;;;5001284;28;20042;-83
2022/01/15 07:42:08;;;;;;;3.88;2.63;;;;;;;;;;4988236;28;20046;-84
2022/01/15 07:44:34;;;;;;;3.88;2.55;;;;;;;;;;4980367;28;20553;-83
2022/01/15 07:47:00;;;;;;;4.82;2.92;;;;;;;;;;4984656;28;20161;-83
2022/01/15 07:49:26;;;;;;;6.45;2.85;;;;;;;;;;4982959;28;20104;-83
2022/01/15 07:51:52;;;;;;;3.58;2.75;;;;;;;;;;4988662;28;20038;-83
2022/01/15 07:54:18;;;;;;;3.75;2.83;;;;;;;;;;4988776;28;20045;-82
2022/01/15 07:56:44;;;;;;;2.42;2.10;;;;;;;;;;4985027;28;20042;-83
2022/01/15 07:59:13;;;;;;;3.17;2.50;;;;;;;;;;5007417;28;20497;-83
2022/01/15 08:01:39;;;;;;;2.63;2.22;;;;;;;;;;4985669;28;20053;-83
2022/01/15 08:04:05;;;;;;;3.75;2.53;;;;;;;;;;4987437;28;20481;-83
2022/01/15 08:06:32;;;;;;;3.13;2.60;;;;;;;;;;4986143;28;20050;-82
2022/01/15 08:08:58;;;;;;;3.13;2.42;;;;;;;;;;4987492;28;20111;-83
2022/01/15 08:11:24;;;;;;;3.90;2.40;;;;;;;;;;4988742;28;20046;-82
2022/01/15 08:13:50;;;;;;;3.70;2.60;;;;;;;;;;4987354;28;20115;-83
2022/01/15 08:16:16;;;;;;;3.53;2.60;;;;;;;;;;4987792;28;20417;-82
2022/01/15 08:18:42;;;;;;;3.83;2.85;;;;;;;;;;5002896;28;20053;-83
2022/01/15 08:21:08;;;;;;;4.15;2.88;;;;;;;;;;4986389;28;20042;-83
2022/01/15 08:23:35;;;;;;;4.35;3.10;;;;;;;;;;4989174;28;20086;-83
2022/01/15 08:26:03;;;;;;;6.10;4.95;;;;;;;;;;5003649;28;20635;-84
2022/01/15 08:28:29;;;;;;;4.25;3.10;;;;;;;;;;4986356;28;20037;-83
2022/01/15 08:30:55;;;;;;;5.63;3.50;;;;;;;;;;4982653;28;20062;-83
2022/01/15 08:33:21;;;;;;;5.20;3.67;;;;;;;;;;4999638;28;20157;-83
2022/01/15 08:35:47;;;;;;;8.15;4.40;;;;;;;;;;4981855;28;20457;-83
2022/01/15 08:38:13;;;;;;;9.23;3.97;;;;;;;;;;5010948;28;20053;-83
2022/01/15 08:40:39;;;;;;;6.47;4.45;;;;;;;;;;4983722;28;20142;-83
2022/01/15 08:43:05;;;;;;;7.85;5.00;;;;;;;;;;4988199;28;20140;-84
2022/01/15 08:45:31;;;;;;;6.43;4.75;;;;;;;;;;5005185;28;20488;-83
2022/01/15 08:47:58;;;;;;;6.70;4.50;;;;;;;;;;4987377;28;20497;-83
2022/01/15 08:50:24;;;;;;;7.15;4.80;;;;;;;;;;4990375;28;20100;-83
2022/01/15 08:52:50;;;;;;;4.88;3.95;;;;;;;;;;4994106;28;20042;-83
2022/01/15 08:55:17;;;;;;;5.43;4.22;;;;;;;;;;5007283;28;20149;-83
2022/01/15 08:57:44;;;;;;;5.13;4.43;;;;;;;;;;4984104;28;20038;-83
2022/01/15 09:00:11;;;;;;;5.28;4.18;;;;;;;;;;4993084;28;20057;-83
2022/01/15 09:02:40;;;;;;;6.78;4.72;;;;;;;;;;5009750;28;20054;-85
2022/01/15 09:05:10;;;;;;;6.72;4.88;;;;;;;;;;4989058;28;20141;-84
2022/01/15 09:07:36;;;;;;;7.03;4.80;;;;;;;;;;4983449;28;20739;-83
2022/01/15 09:10:02;;;;;;;7.25;4.47;;;;;;;;;;5005630;28;20046;-83
2022/01/15 09:12:28;;;;;;;7.47;4.63;;;;;;;;;;4990182;28;20054;-83
2022/01/15 09:14:58;;;;;;;7.50;4.93;;;;;;;;;;4990542;28;20045;-84
2022/01/15 09:17:25;;;;;;;7.32;4.60;;;;;;;;;;4988360;28;20049;-83
2022/01/15 09:19:51;;;;;;;12.77;5.28;;;;;;;;;;5010565;28;20145;-83
2022/01/15 09:22:17;;;;;;;10.60;5.35;;;;;;;;;;4991563;28;20125;-84
2022/01/15 09:24:45;;;;;;;9.15;5.45;;;;;;;;;;4988186;28;20054;-82
2022/01/15 09:30:15;;;;;;;18.73;5.82;;;;;;;;;;4989469;28;20046;-84
2022/01/15 09:32:41;;;;;;;13.55;5.13;;;;;;;;;;4985308;28;20093;-84
2022/01/15 09:35:08;;;;;;;12.45;5.50;;;;;;;;;;5005676;28;20785;-83
2022/01/15 09:37:34;;;;;;;16.13;5.28;;;;;;;;;;4991195;28;20448;-83
2022/01/15 09:40:00;;;;;;;34.25;7.28;;;;;;;;;;5004511;28;20132;-83
2022/01/15 09:42:26;;;;;;;10.35;5.63;;;;;;;;;;4986674;28;20149;-84
2022/01/15 09:44:53;;;;;;;10.93;6.03;;;;;;;;;;5000998;28;20429;-84
2022/01/15 09:47:21;;;;;;;10.65;5.32;;;;;;;;;;4982081;28;20046;-84
2022/01/15 09:49:48;;;;;;;12.40;5.55;;;;;;;;;;4983397;28;20045;-83
2022/01/15 09:52:15;;;;;;;13.55;5.13;;;;;;;;;;4981703;28;20054;-84
2022/01/15 09:54:41;;;;;;;7.90;4.75;;;;;;;;;;5008218;28;20062;-83
2022/01/15 09:57:08;;;;;;;6.25;4.18;;;;;;;;;;4983129;28;20046;-83
2022/01/15 09:59:34;;;;;;;7.32;4.43;;;;;;;;;;5005729;28;20072;-82
2022/01/15 10:02:02;;;;;;;15.38;5.40;;;;;;;;;;4989097;28;20073;-82
2022/01/15 10:04:32;;;;;;;12.98;5.20;;;;;;;;;;4986588;28;20058;-83
2022/01/15 10:07:19;;;;;;;20.95;5.55;;;;;;;;;;4987134;28;20068;-82
2022/01/15 10:09:48;;;;;;;21.88;7.20;;;;;;;;;;5000681;28;20160;-84
2022/01/15 10:12:23;;;;;;;11.20;5.85;;;;;;;;;;4991145;28;20045;-84
2022/01/15 10:14:50;;;;;;;9.85;4.93;;;;;;;;;;4990210;28;20057;-84
2022/01/15 10:17:20;;;;;;;13.90;4.57;;;;;;;;;;5002303;28;20046;-83
2022/01/15 10:19:46;;;;;;;10.98;4.43;;;;;;;;;;4984184;28;20096;-84
2022/01/15 10:22:13;;;;;;;18.88;4.95;;;;;;;;;;4999498;28;20393;-83
2022/01/15 10:24:41;;;;;;;12.63;4.50;;;;;;;;;;4999692;28;20053;-84
2022/01/15 10:27:36;;;;;;;8.70;4.63;;;;;;;;;;4987582;28;20606;-83
2022/01/15 10:30:05;;;;;;;11.88;4.25;;;;;;;;;;4980715;28;20085;-82
2022/01/15 10:32:32;;;;;;;7.65;3.75;;;;;;;;;;4983835;28;20401;-81
2022/01/15 10:34:58;;;;;;;8.90;4.32;;;;;;;;;;4989438;28;20109;-82
2022/01/15 10:37:26;;;;;;;7.70;4.43;;;;;;;;;;4987072;28;20080;-82
2022/01/15 10:40:05;;;;;;;19.98;4.80;;;;;;;;;;4984011;28;20085;-82
2022/01/15 10:42:32;;;;;;;7.03;4.85;;;;;;;;;;4990476;28;20054;-82
2022/01/15 10:44:58;;;;;;;8.45;4.78;;;;;;;;;;4991182;28;20038;-82
2022/01/15 10:47:26;;;;;;;7.97;4.88;;;;;;;;;;5003225;28;20471;-82
2022/01/15 10:49:53;;;;;;;20.42;5.03;;;;;;;;;;5005605;28;20077;-82
2022/01/15 10:52:23;;;;;;;12.95;4.80;;;;;;;;;;4978937;28;20049;-82
2022/01/15 10:54:50;;;;;;;27.52;5.30;;;;;;;;;;5005128;28;20104;-82
2022/01/15 10:57:18;;;;;;;10.35;5.13;;;;;;;;;;4980224;28;20048;-82
2022/01/15 10:59:55;;;;;;;13.45;5.22;;;;;;;;;;4982110;28;20390;-82
2022/01/15 11:02:21;;;;;;;13.10;5.70;;;;;;;;;;4983008;28;20053;-82
2022/01/15 11:04:48;;;;;;;26.75;6.05;;;;;;;;;;5000768;28;20123;-81
2022/01/15 11:07:15;;;;;;;17.23;6.90;;;;;;;;;;4982647;28;20492;-82
2022/01/15 11:09:45;;;;;;;15.05;6.97;;;;;;;;;;4980763;28;20058;-82
2022/01/15 11:12:12;;;;;;;17.50;7.78;;;;;;;;;;4985841;28;21092;-83
2022/01/15 11:14:38;;;;;;;30.13;8.07;;;;;;;;;;4982098;28;20045;-83
2022/01/15 11:17:04;;;;;;;30.55;7.65;;;;;;;;;;4982215;28;20054;-84
2022/01/15 11:19:31;;;;;;;34.35;8.90;;;;;;;;;;4980383;28;20073;-84
2022/01/15 11:21:58;;;;;;;21.42;8.13;;;;;;;;;;4982344;28;20675;-84
2022/01/15 11:24:24;;;;;;;18.10;8.38;;;;;;;;;;4999092;28;20450;-84
2022/01/15 11:27:00;;;;;;;33.22;8.40;;;;;;;;;;4977906;28;20081;-84
2022/01/15 11:29:27;;;;;;;19.58;8.80;;;;;;;;;;4999042;28;20049;-84
2022/01/15 11:31:56;;;;;;;19.27;8.00;;;;;;;;;;4981015;28;20038;-84
2022/01/15 11:34:23;;;;;;;29.45;8.68;;;;;;;;;;4983048;28;20057;-81
2022/01/15 11:36:50;;;;;;;21.02;8.20;;;;;;;;;;4996904;28;20042;-83
2022/01/15 11:39:33;;;;;;;17.52;8.30;;;;;;;;;;4979309;28;20055;-83
2022/01/15 11:42:01;;;;;;;18.35;8.73;;;;;;;;;;4981167;28;20046;-85
2022/01/15 11:44:33;;;;;;;22.92;7.85;;;;;;;;;;4984077;28;20091;-84
2022/01/15 11:47:21;;;;;;;20.83;8.10;;;;;;;;;;4981937;28;20060;-83
2022/01/15 11:49:49;;;;;;;22.52;8.77;;;;;;;;;;5001399;28;20057;-83
2022/01/15 11:52:17;;;;;;;29.90;9.82;;;;;;;;;;4985349;28;20097;-83
2022/01/15 11:54:49;;;;;;;15.98;8.43;;;;;;;;;;4985805;28;20045;-83
2022/01/15 11:57:21;;;;;;;15.32;8.65;;;;;;;;;;4980804;28;20042;-83
2022/01/15 11:59:48;;;;;;;37.58;8.90;;;;;;;;;;5004332;28;20046;-82
2022/01/15 12:02:37;;;;;;;23.42;8.50;;;;;;;;;;4989089;28;20042;-84
2022/01/15 12:05:15;;;;;;;36.22;9.77;;;;;;;;;;5004107;28;20038;-84
2022/01/15 12:07:42;;;;;;;27.95;8.90;;;;;;;;;;4990359;28;20448;-83
2022/01/15 12:10:12;;;;;;;27.30;10.23;;;;;;;;;;5009224;28;20050;-83
2022/01/15 12:12:45;;;;;;;22.00;9.85;;;;;;;;;;4992321;28;20493;-84
2022/01/15 12:15:16;;;;;;;41.65;12.10;;;;;;;;;;5013878;28;20053;-84
2022/01/15 12:17:44;;;;;;;23.52;10.85;;;;;;;;;;4992090;28;20049;-82
2022/01/15 12:20:25;;;;;;;31.67;11.55;;;;;;;;;;5011837;28;20077;-84
2022/01/15 12:22:59;;;;;;;32.13;12.10;;;;;;;;;;4992948;28;20064;-81
2022/01/15 12:25:28;;;;;;;28.55;12.15;;;;;;;;;;4984282;28;20141;-81
2022/01/15 12:27:58;;;;;;;29.95;12.13;;;;;;;;;;5001766;28;20449;-82
2022/01/15 12:30:25;;;;;;;24.00;12.32;;;;;;;;;;5005457;28;20092;-81
2022/01/15 12:32:55;;;;;;;27.60;11.57;;;;;;;;;;4986403;28;20042;-81
2022/01/15 12:35:23;;;;;;;31.55;10.20;;;;;;;;;;5003155;28;20041;-81
2022/01/15 12:37:57;;;;;;;24.00;10.70;;;;;;;;;;4985166;28;21482;-81
2022/01/15 12:40:29;;;;;;;25.70;11.60;;;;;;;;;;4985706;28;20198;-82
2022/01/15 12:42:56;;;;;;;31.75;12.32;;;;;;;;;;4987434;28;20196;-81
2022/01/15 12:45:23;;;;;;;30.67;10.30;;;;;;;;;;4986129;28;20426;-81
2022/01/15 12:47:49;;;;;;;25.98;10.02;;;;;;;;;;5005295;28;20914;-81
2022/01/15 12:50:15;;;;;;;24.60;10.18;;;;;;;;;;5003963;28;20393;-81
2022/01/15 12:52:41;;;;;;;27.85;9.10;;;;;;;;;;5002677;28;20049;-81
2022/01/15 12:55:08;;;;;;;15.95;8.43;;;;;;;;;;5009132;28;20046;-81
2022/01/15 12:57:38;;;;;;;32.17;9.25;;;;;;;;;;4985541;28;20046;-81
2022/01/15 13:00:05;;;;;;;19.05;8.88;;;;;;;;;;5003945;28;20180;-81
2022/01/15 13:02:31;;;;;;;20.10;8.85;;;;;;;;;;5003849;28;20042;-81
2022/01/15 13:05:00;;;;;;;25.83;8.25;;;;;;;;;;4984661;28;20050;-81
2022/01/15 13:07:26;;;;;;;32.75;8.77;;;;;;;;;;4986550;28;20049;-81
2022/01/15 13:09:52;;;;;;;30.23;8.90;;;;;;;;;;4985987;28;20053;-81
2022/01/15 13:12:18;;;;;;;35.13;8.63;;;;;;;;;;4990223;28;20050;-81
2022/01/15 13:14:45;;;;;;;39.28;8.88;;;;;;;;;;4996639;28;20058;-83
2022/01/15 13:17:21;;;;;;;21.05;8.32;;;;;;;;;;4987850;28;20057;-85
2022/01/15 13:19:47;;;;;;;21.13;8.38;;;;;;;;;;4994788;28;20046;-82
2022/01/15 13:22:13;;;;;;;19.70;9.32;;;;;;;;;;4987475;28;20200;-80
2022/01/15 13:24:39;;;;;;;27.88;8.60;;;;;;;;;;4988936;28;20061;-83
2022/01/15 13:27:06;;;;;;;14.75;8.35;;;;;;;;;;4983944;28;20049;-82
2022/01/15 13:29:39;;;;;;;27.40;8.70;;;;;;;;;;5005512;28;20076;-82
2022/01/15 13:32:07;;;;;;;20.13;7.68;;;;;;;;;;5005605;28;20145;-81
2022/01/15 13:34:35;;;;;;;21.85;7.63;;;;;;;;;;4989941;28;20054;-81
2022/01/15 13:37:12;;;;;;;19.20;7.63;;;;;;;;;;4983532;28;20049;-82
2022/01/15 13:39:39;;;;;;;13.00;7.35;;;;;;;;;;4983092;28;20072;-82
2022/01/15 13:42:05;;;;;;;20.52;7.57;;;;;;;;;;4983465;28;20137;-81
2022/01/15 13:44:32;;;;;;;17.85;6.70;;;;;;;;;;4999339;28;20486;-81
2022/01/15 13:47:07;;;;;;;23.63;6.93;;;;;;;;;;5003123;28;20038;-82
2022/01/15 13:53:04;;;;;;;21.63;7.00;;;;;;;;;;4983306;28;20061;-82
2022/01/15 13:55:23;;;;;;;18.73;7.15;;;;;;;;;;5004190;28;20088;-81
2022/01/15 13:57:50;;;;;;;13.57;8.30;;;;;;;;;;5007980;28;20900;-81
2022/01/15 14:00:16;;;;;;;18.73;7.55;;;;;;;;;;4995030;28;20135;-83
2022/01/15 14:02:44;;;;;;;15.98;7.65;;;;;;;;;;4984109;28;20053;-84
2022/01/15 14:05:21;;;;;;;24.52;7.72;;;;;;;;;;4983774;28;20100;-83
2022/01/15 14:07:48;;;;;;;15.02;6.90;;;;;;;;;;4983614;28;20125;-84
2022/01/15 14:10:18;;;;;;;16.70;7.53;;;;;;;;;;5001911;28;20125;-84
2022/01/15 14:12:44;;;;;;;20.63;7.88;;;;;;;;;;5000755;28;20046;-84
2022/01/15 14:15:14;;;;;;;13.85;6.88;;;;;;;;;;5005691;28;20073;-85
2022/01/15 14:17:43;;;;;;;14.25;7.15;;;;;;;;;;4989500;28;20430;-85
2022/01/15 14:22:59;;;;;;;16.63;7.55;;;;;;;;;;5000991;28;20050;-83
2022/01/15 14:25:26;;;;;;;10.00;5.82;;;;;;;;;;4986547;28;20055;-83
2022/01/15 14:28:09;;;;;;;11.55;6.45;;;;;;;;;;4985318;28;20058;-84
2022/01/15 14:30:36;;;;;;;13.38;6.25;;;;;;;;;;4986695;28;20445;-84
2022/01/15 14:33:03;;;;;;;15.50;6.18;;;;;;;;;;4988705;28;20070;-84
2022/01/15 14:35:29;;;;;;;9.95;6.30;;;;;;;;;;4983815;28;20061;-85
2022/01/15 14:37:56;;;;;;;9.40;5.72;;;;;;;;;;5003248;28;20049;-86
2022/01/15 14:40:22;;;;;;;10.23;5.80;;;;;;;;;;5002741;28;20137;-85
2022/01/15 14:42:48;;;;;;;12.88;6.07;;;;;;;;;;4988805;28;20058;-85
2022/01/15 14:45:17;;;;;;;9.38;6.00;;;;;;;;;;4983724;28;20074;-85
2022/01/15 14:47:43;;;;;;;11.57;5.95;;;;;;;;;;4983432;28;20058;-84
2022/01/15 14:50:09;;;;;;;12.45;6.47;;;;;;;;;;5002005;28;20389;-85
2022/01/15 14:52:35;;;;;;;9.73;6.13;;;;;;;;;;4983143;28;20149;-83
2022/01/15 14:55:01;;;;;;;10.23;6.32;;;;;;;;;;4984492;28;20048;-83
2022/01/15 14:57:27;;;;;;;12.02;6.25;;;;;;;;;;4988919;28;20046;-82
2022/01/15 14:59:53;;;;;;;12.02;6.57;;;;;;;;;;4988709;28;20394;-82
2022/01/15 15:02:19;;;;;;;10.18;6.07;;;;;;;;;;4988323;28;20050;-83
2022/01/15 15:04:45;;;;;;;7.88;5.57;;;;;;;;;;4984329;28;20474;-83
2022/01/15 15:07:11;;;;;;;7.97;5.25;;;;;;;;;;4983785;28;20129;-83